sensor_id;sensor_type;location;lat;lon;timestamp;P1;durP1;ratioP1;P2;durP2;ratioP2
50134;SDS011;36033;55.482;37.380;2022-08-19T18:05:43;12.10;;;4.00;;
50134;SDS011;36033;55.482;37.380;2022-08-19T18:10:35;4.90;;;3.78;;
50134;SDS011;36033;55.482;37.380;2022-08-19T18:13:02;8.52;;;3.42;;
50134;SDS011;36033;55.482;37.380;2022-08-19T18:15:29;4.75;;;3.35;;
50134;SDS011;36033;55.482;37.380;2022-08-19T18:20:21;9.88;;;4.68;;
50134;SDS011;36033;55.482;37.380;2022-08-19T18:22:48;7.82;;;6.22;;
50134;SDS011;36033;55.482;37.380;2022-08-19T18:25:16;13.02;;;4.55;;
50134;SDS011;36033;55.482;37.380;2022-08-19T18:27:46;6.00;;;3.92;;
50134;SDS011;36033;55.482;37.380;2022-08-19T18:30:12;4.53;;;3.63;;
50134;SDS011;36033;55.482;37.380;2022-08-19T18:32:39;10.30;;;3.35;;
50134;SDS011;36033;55.482;37.380;2022-08-19T18:35:08;4.28;;;3.22;;
50134;SDS011;36033;55.482;37.380;2022-08-19T18:37:39;8.70;;;3.92;;
50134;SDS011;36033;55.482;37.380;2022-08-19T18:40:18;15.52;;;4.00;;
50134;SDS011;36033;55.482;37.380;2022-08-19T18:43:05;5.30;;;3.72;;
50134;SDS011;36033;55.482;37.380;2022-08-19T18:45:50;13.35;;;3.92;;
50134;SDS011;36033;55.482;37.380;2022-08-19T18:48:35;11.43;;;3.92;;
50134;SDS011;36033;55.482;37.380;2022-08-19T18:51:22;6.75;;;3.42;;
50134;SDS011;36033;55.482;37.380;2022-08-19T18:53:49;4.35;;;3.75;;
50134;SDS011;36033;55.482;37.380;2022-08-19T18:58:43;13.07;;;4.45;;
50134;SDS011;36033;55.482;37.380;2022-08-19T19:01:19;8.13;;;7.30;;
50134;SDS011;36033;55.482;37.380;2022-08-19T19:03:50;14.70;;;13.13;;
50134;SDS011;36033;55.482;37.380;2022-08-19T19:06:19;17.92;;;13.32;;
50134;SDS011;36033;55.482;37.380;2022-08-19T19:08:49;14.95;;;9.07;;
50134;SDS011;36033;55.482;37.380;2022-08-19T19:11:25;7.85;;;5.95;;
50134;SDS011;36033;55.482;37.380;2022-08-19T19:13:53;8.52;;;5.22;;
50134;SDS011;36033;55.482;37.380;2022-08-19T19:16:19;21.85;;;5.53;;
50134;SDS011;36033;55.482;37.380;2022-08-19T19:18:49;10.80;;;5.53;;
50134;SDS011;36033;55.482;37.380;2022-08-19T19:21:18;10.35;;;5.28;;
50134;SDS011;36033;55.482;37.380;2022-08-19T19:23:45;10.45;;;5.40;;
50134;SDS011;36033;55.482;37.380;2022-08-19T19:26:11;8.88;;;7.10;;
50134;SDS011;36033;55.482;37.380;2022-08-19T19:28:38;8.07;;;5.28;;
50134;SDS011;36033;55.482;37.380;2022-08-19T19:31:09;10.23;;;4.93;;
50134;SDS011;36033;55.482;37.380;2022-08-19T19:33:40;12.93;;;5.47;;
50134;SDS011;36033;55.482;37.380;2022-08-19T19:36:07;13.10;;;6.40;;
50134;SDS011;36033;55.482;37.380;2022-08-19T19:38:33;10.75;;;6.22;;
50134;SDS011;36033;55.482;37.380;2022-08-19T19:40:59;9.15;;;4.85;;
50134;SDS011;36033;55.482;37.380;2022-08-19T19:43:24;11.68;;;4.97;;
50134;SDS011;36033;55.482;37.380;2022-08-19T19:45:52;21.95;;;6.22;;
50134;SDS011;36033;55.482;37.380;2022-08-19T19:48:18;13.23;;;5.00;;
50134;SDS011;36033;55.482;37.380;2022-08-19T19:50:43;10.35;;;5.60;;
50134;SDS011;36033;55.482;37.380;2022-08-19T19:55:35;10.75;;;4.63;;
50134;SDS011;36033;55.482;37.380;2022-08-19T19:58:01;7.05;;;4.30;;
50134;SDS011;36033;55.482;37.380;2022-08-19T20:00:28;7.32;;;3.67;;
50134;SDS011;36033;55.482;37.380;2022-08-19T20:02:54;15.43;;;4.53;;
50134;SDS011;36033;55.482;37.380;2022-08-19T20:05:20;14.05;;;5.00;;
50134;SDS011;36033;55.482;37.380;2022-08-19T20:07:47;8.50;;;3.38;;
50134;SDS011;36033;55.482;37.380;2022-08-19T20:10:32;6.07;;;3.63;;
50134;SDS011;36033;55.482;37.380;2022-08-19T20:12:59;11.75;;;4.18;;
50134;SDS011;36033;55.482;37.380;2022-08-19T20:15:27;15.93;;;3.67;;
50134;SDS011;36033;55.482;37.380;2022-08-19T20:17:53;15.93;;;4.07;;
50134;SDS011;36033;55.482;37.380;2022-08-19T20:20:19;15.93;;;3.50;;
50134;SDS011;36033;55.482;37.380;2022-08-19T20:22:46;5.18;;;3.42;;
50134;SDS011;36033;55.482;37.380;2022-08-19T20:25:12;8.93;;;3.47;;
50134;SDS011;36033;55.482;37.380;2022-08-19T20:27:39;5.28;;;2.90;;
50134;SDS011;36033;55.482;37.380;2022-08-19T20:30:06;11.60;;;3.33;;
50134;SDS011;36033;55.482;37.380;2022-08-19T20:32:33;11.57;;;3.60;;
50134;SDS011;36033;55.482;37.380;2022-08-19T20:34:59;6.10;;;2.97;;
50134;SDS011;36033;55.482;37.380;2022-08-19T20:37:25;8.52;;;3.17;;
50134;SDS011;36033;55.482;37.380;2022-08-19T20:39:52;11.57;;;2.80;;
50134;SDS011;36033;55.482;37.380;2022-08-19T20:42:18;7.60;;;2.30;;
50134;SDS011;36033;55.482;37.380;2022-08-19T20:44:44;8.93;;;3.47;;
50134;SDS011;36033;55.482;37.380;2022-08-19T20:47:09;11.32;;;2.90;;
50134;SDS011;36033;55.482;37.380;2022-08-19T20:49:35;4.93;;;2.60;;
50134;SDS011;36033;55.482;37.380;2022-08-19T20:52:01;7.05;;;3.17;;
50134;SDS011;36033;55.482;37.380;2022-08-19T20:54:28;21.05;;;3.58;;
50134;SDS011;36033;55.482;37.380;2022-08-19T20:56:53;7.40;;;2.97;;
50134;SDS011;36033;55.482;37.380;2022-08-19T20:59:19;5.20;;;2.83;;
50134;SDS011;36033;55.482;37.380;2022-08-19T21:01:46;9.82;;;3.22;;
50134;SDS011;36033;55.482;37.380;2022-08-19T21:04:12;8.48;;;3.08;;
50134;SDS011;36033;55.482;37.380;2022-08-19T21:06:38;8.82;;;3.00;;
50134;SDS011;36033;55.482;37.380;2022-08-19T21:09:04;4.55;;;2.97;;
50134;SDS011;36033;55.482;37.380;2022-08-19T21:13:56;10.10;;;3.25;;
50134;SDS011;36033;55.482;37.380;2022-08-19T21:16:23;13.82;;;2.53;;
50134;SDS011;36033;55.482;37.380;2022-08-19T21:18:49;15.98;;;3.13;;
50134;SDS011;36033;55.482;37.380;2022-08-19T21:21:15;4.13;;;2.45;;
50134;SDS011;36033;55.482;37.380;2022-08-19T21:23:40;7.97;;;2.65;;
50134;SDS011;36033;55.482;37.380;2022-08-19T21:26:06;10.05;;;3.40;;
50134;SDS011;36033;55.482;37.380;2022-08-19T21:28:33;12.60;;;3.60;;
50134;SDS011;36033;55.482;37.380;2022-08-19T21:30:59;6.75;;;2.45;;
50134;SDS011;36033;55.482;37.380;2022-08-19T21:35:52;13.70;;;3.50;;
50134;SDS011;36033;55.482;37.380;2022-08-19T21:38:18;6.55;;;3.22;;
50134;SDS011;36033;55.482;37.380;2022-08-19T21:40:43;6.78;;;3.33;;
50134;SDS011;36033;55.482;37.380;2022-08-19T21:43:09;15.77;;;4.10;;
50134;SDS011;36033;55.482;37.380;2022-08-19T21:45:35;13.55;;;3.30;;
50134;SDS011;36033;55.482;37.380;2022-08-19T21:50:26;11.80;;;3.65;;
50134;SDS011;36033;55.482;37.380;2022-08-19T21:52:52;10.25;;;4.03;;
50134;SDS011;36033;55.482;37.380;2022-08-19T21:55:18;12.15;;;3.83;;
50134;SDS011;36033;55.482;37.380;2022-08-19T21:57:44;10.90;;;4.78;;
50134;SDS011;36033;55.482;37.380;2022-08-19T22:00:13;8.18;;;4.22;;
50134;SDS011;36033;55.482;37.380;2022-08-19T22:02:43;11.13;;;3.67;;
50134;SDS011;36033;55.482;37.380;2022-08-19T22:05:09;4.47;;;3.40;;
50134;SDS011;36033;55.482;37.380;2022-08-19T22:07:35;16.95;;;3.95;;
50134;SDS011;36033;55.482;37.380;2022-08-19T22:10:01;6.75;;;2.97;;
50134;SDS011;36033;55.482;37.380;2022-08-19T22:12:30;8.63;;;4.00;;
50134;SDS011;36033;55.482;37.380;2022-08-19T22:14:56;6.28;;;3.10;;
50134;SDS011;36033;55.482;37.380;2022-08-19T22:17:23;10.73;;;3.83;;
50134;SDS011;36033;55.482;37.380;2022-08-19T22:19:51;10.13;;;4.53;;
50134;SDS011;36033;55.482;37.380;2022-08-19T22:22:29;7.82;;;4.40;;
50134;SDS011;36033;55.482;37.380;2022-08-19T22:25:17;10.05;;;4.45;;
50134;SDS011;36033;55.482;37.380;2022-08-19T22:27:45;11.75;;;4.57;;
50134;SDS011;36033;55.482;37.380;2022-08-19T22:30:11;7.32;;;4.28;;
50134;SDS011;36033;55.482;37.380;2022-08-19T22:32:42;8.05;;;4.60;;
50134;SDS011;36033;55.482;37.380;2022-08-19T22:35:10;13.13;;;4.30;;
50134;SDS011;36033;55.482;37.380;2022-08-19T22:37:36;8.45;;;4.18;;
50134;SDS011;36033;55.482;37.380;2022-08-19T22:40:01;7.88;;;4.10;;
50134;SDS011;36033;55.482;37.380;2022-08-19T22:42:29;9.25;;;4.25;;
50134;SDS011;36033;55.482;37.380;2022-08-19T22:44:56;14.13;;;4.38;;
50134;SDS011;36033;55.482;37.380;2022-08-19T22:47:23;8.38;;;4.22;;
50134;SDS011;36033;55.482;37.380;2022-08-19T22:49:49;5.70;;;4.72;;
50134;SDS011;36033;55.482;37.380;2022-08-19T22:52:16;10.55;;;4.80;;
50134;SDS011;36033;55.482;37.380;2022-08-19T22:54:52;10.95;;;5.47;;
50134;SDS011;36033;55.482;37.380;2022-08-19T22:59:45;7.82;;;5.18;;
50134;SDS011;36033;55.482;37.380;2022-08-19T23:02:19;9.80;;;5.97;;
50134;SDS011;36033;55.482;37.380;2022-08-19T23:04:47;9.68;;;6.15;;
50134;SDS011;36033;55.482;37.380;2022-08-19T23:07:14;9.80;;;5.85;;
50134;SDS011;36033;55.482;37.380;2022-08-19T23:09:41;9.18;;;5.50;;
50134;SDS011;36033;55.482;37.380;2022-08-19T23:12:06;8.98;;;5.65;;
50134;SDS011;36033;55.482;37.380;2022-08-19T23:14:32;14.43;;;6.18;;
50134;SDS011;36033;55.482;37.380;2022-08-19T23:17:00;12.13;;;6.20;;
50134;SDS011;36033;55.482;37.380;2022-08-19T23:19:26;8.25;;;5.80;;
50134;SDS011;36033;55.482;37.380;2022-08-19T23:21:51;9.02;;;6.10;;
50134;SDS011;36033;55.482;37.380;2022-08-19T23:24:17;12.68;;;6.43;;
50134;SDS011;36033;55.482;37.380;2022-08-19T23:26:43;7.97;;;6.65;;
50134;SDS011;36033;55.482;37.380;2022-08-19T23:29:29;9.38;;;6.20;;
50134;SDS011;36033;55.482;37.380;2022-08-19T23:32:14;13.90;;;6.95;;
50134;SDS011;36033;55.482;37.380;2022-08-19T23:34:40;10.20;;;6.45;;
50134;SDS011;36033;55.482;37.380;2022-08-19T23:37:06;10.45;;;6.40;;
50134;SDS011;36033;55.482;37.380;2022-08-19T23:39:31;16.23;;;7.38;;
50134;SDS011;36033;55.482;37.380;2022-08-19T23:41:57;9.23;;;7.28;;
50134;SDS011;36033;55.482;37.380;2022-08-19T23:44:23;16.67;;;8.75;;
50134;SDS011;36033;55.482;37.380;2022-08-19T23:46:49;17.52;;;8.60;;
50134;SDS011;36033;55.482;37.380;2022-08-19T23:49:15;10.20;;;9.18;;
50134;SDS011;36033;55.482;37.380;2022-08-19T23:51:40;20.45;;;9.85;;
50134;SDS011;36033;55.482;37.380;2022-08-19T23:54:06;14.90;;;9.48;;
50134;SDS011;36033;55.482;37.380;2022-08-19T23:56:31;21.88;;;11.05;;
50134;SDS011;36033;55.482;37.380;2022-08-19T23:58:57;27.75;;;12.48;;
